createdAt,value
2022-09-13T00:01:15.645Z,7.65
2022-09-13T00:03:43.377Z,7.25
2022-09-13T00:06:13.111Z,7.38
2022-09-13T00:08:41.221Z,6.78
2022-09-13T00:11:17.591Z,5.05
2022-09-13T00:13:45.682Z,3.80
2022-09-13T00:16:14.569Z,6.90
2022-09-13T00:18:42.949Z,4.88
2022-09-13T00:21:12.564Z,5.90
2022-09-13T00:23:41.459Z,5.30
2022-09-13T00:26:12.588Z,6.40
2022-09-13T00:28:40.791Z,4.93
2022-09-13T00:31:10.542Z,5.50
2022-09-13T00:33:38.765Z,4.25
2022-09-13T00:36:07.502Z,6.45
2022-09-13T00:38:36.851Z,5.70
2022-09-13T00:41:05.290Z,5.13
2022-09-13T00:43:46.924Z,5.60
2022-09-13T00:46:21.615Z,4.13
2022-09-13T00:48:52.063Z,10.07
2022-09-13T00:51:20.053Z,5.95
2022-09-13T00:53:52.069Z,6.10
2022-09-13T00:56:24.005Z,4.57
2022-09-13T00:58:58.955Z,5.78
2022-09-13T01:01:32.433Z,4.35
2022-09-13T01:04:01.618Z,4.05
2022-09-13T01:06:33.406Z,4.68
2022-09-13T01:09:04.349Z,5.60
2022-09-13T01:11:41.884Z,6.28
2022-09-13T01:14:11.395Z,7.25
2022-09-13T01:16:39.303Z,5.45
2022-09-13T01:19:07.028Z,5.30
2022-09-13T01:22:10.458Z,5.28
2022-09-13T01:24:58.083Z,7.03
2022-09-13T01:27:53.924Z,5.63
2022-09-13T01:30:23.990Z,6.88
2022-09-13T01:33:23.001Z,5.30
2022-09-13T01:36:14.522Z,4.72
2022-09-13T01:38:57.850Z,5.30
2022-09-13T01:41:50.671Z,4.10
2022-09-13T01:44:30.755Z,4.60
2022-09-13T01:47:07.610Z,7.07
2022-09-13T01:49:44.331Z,7.18
2022-09-13T01:52:22.745Z,5.53
2022-09-13T01:54:59.064Z,4.47
2022-09-13T01:57:34.086Z,8.40
2022-09-13T02:00:07.661Z,5.00
2022-09-13T02:02:42.197Z,4.97
2022-09-13T02:05:16.649Z,6.25
2022-09-13T02:07:47.757Z,3.75
2022-09-13T02:10:22.475Z,5.75
2022-09-13T02:12:53.836Z,7.03
2022-09-13T02:15:26.270Z,5.22
2022-09-13T02:18:03.428Z,6.13
2022-09-13T02:20:35.963Z,5.90
2022-09-13T02:23:10.793Z,5.68
2022-09-13T02:25:41.277Z,7.55
2022-09-13T02:28:16.236Z,5.65
2022-09-13T02:30:48.642Z,6.85
2022-09-13T02:33:23.284Z,7.57
2022-09-13T02:35:55.976Z,6.82
2022-09-13T02:38:29.394Z,7.20
2022-09-13T02:41:01.590Z,6.07
2022-09-13T02:43:35.804Z,5.25
2022-09-13T02:46:15.119Z,6.13
2022-09-13T02:48:53.679Z,4.68
2022-09-13T02:51:31.324Z,7.53
2022-09-13T02:54:10.780Z,5.72
2022-09-13T02:56:49.888Z,5.00
2022-09-13T02:59:20.531Z,6.97
2022-09-13T03:01:51.993Z,5.57
2022-09-13T03:04:21.482Z,5.78
2022-09-13T03:06:50.998Z,6.28
2022-09-13T03:09:19.576Z,5.75
2022-09-13T03:12:23.259Z,5.85
2022-09-13T03:14:57.907Z,5.45
2022-09-13T03:17:40.507Z,5.20
2022-09-13T03:20:13.834Z,4.55
2022-09-13T03:23:12.380Z,6.93
2022-09-13T03:25:57.833Z,5.65
2022-09-13T03:28:35.954Z,5.75
2022-09-13T03:31:08.773Z,5.25
2022-09-13T03:33:48.015Z,7.03
2022-09-13T03:36:22.879Z,6.13
2022-09-13T03:38:59.447Z,7.15
2022-09-13T03:41:32.733Z,6.22
2022-09-13T03:44:02.801Z,5.13
2022-09-13T03:46:34.933Z,5.70
2022-09-13T03:49:05.254Z,8.05
2022-09-13T03:51:34.840Z,8.65
2022-09-13T03:54:06.127Z,8.52
2022-09-13T03:56:34.073Z,6.28
2022-09-13T03:59:02.304Z,6.03
2022-09-13T04:01:31.160Z,6.13
2022-09-13T04:03:59.064Z,4.97
2022-09-13T04:06:26.836Z,7.05
2022-09-13T04:08:56.055Z,7.75
2022-09-13T04:11:24.246Z,5.22
2022-09-13T04:13:52.413Z,6.82
2022-09-13T04:16:20.234Z,7.85
2022-09-13T04:18:48.043Z,7.55
2022-09-13T04:21:16.733Z,7.85
2022-09-13T04:23:44.529Z,6.43
2022-09-13T04:26:13.705Z,7.07
2022-09-13T04:28:41.518Z,7.00
2022-09-13T04:31:09.417Z,6.40
2022-09-13T04:33:37.426Z,7.25
2022-09-13T04:36:05.462Z,5.78
2022-09-13T04:38:33.269Z,9.30
2022-09-13T04:41:01.008Z,8.65
2022-09-13T04:43:30.684Z,5.80
2022-09-13T04:46:01.018Z,7.60
2022-09-13T04:48:29.609Z,7.13
2022-09-13T04:51:02.987Z,7.32
2022-09-13T04:53:30.722Z,5.55
2022-09-13T04:56:02.654Z,5.70
2022-09-13T04:58:32.316Z,5.90
2022-09-13T05:01:02.791Z,6.68
2022-09-13T05:03:31.358Z,11.77
2022-09-13T05:06:03.763Z,7.10
2022-09-13T05:08:31.789Z,6.40
2022-09-13T05:10:59.632Z,5.95
2022-09-13T05:13:27.782Z,7.22
2022-09-13T05:16:01.093Z,8.35
2022-09-13T05:18:29.945Z,12.20
2022-09-13T05:20:58.415Z,7.65
2022-09-13T05:23:27.552Z,9.40
2022-09-13T05:25:55.536Z,7.20
2022-09-13T05:28:23.324Z,6.93
2022-09-13T05:31:00.285Z,6.68
2022-09-13T05:33:29.564Z,8.23
2022-09-13T05:35:57.851Z,10.80
2022-09-13T05:38:25.851Z,7.15
2022-09-13T05:40:56.378Z,8.07
2022-09-13T05:43:26.378Z,8.32
2022-09-13T05:46:03.577Z,6.47
2022-09-13T05:48:32.169Z,8.70
2022-09-13T05:51:07.011Z,7.32
2022-09-13T05:53:35.037Z,12.23
2022-09-13T05:56:03.917Z,9.43
2022-09-13T05:58:31.661Z,9.38
2022-09-13T06:00:59.513Z,7.32
2022-09-13T06:03:28.694Z,7.97
2022-09-13T06:05:57.510Z,8.10
2022-09-13T06:08:25.694Z,7.88
2022-09-13T06:10:58.172Z,7.32
2022-09-13T06:13:27.565Z,8.32
2022-09-13T06:15:56.680Z,12.18
2022-09-13T06:18:26.092Z,8.77
2022-09-13T06:20:59.301Z,7.60
2022-09-13T06:23:27.709Z,10.40
2022-09-13T06:26:02.821Z,9.00
2022-09-13T06:28:33.239Z,11.43
2022-09-13T06:31:06.749Z,7.53
2022-09-13T06:33:34.897Z,7.68
2022-09-13T06:36:06.061Z,12.13
2022-09-13T06:38:34.293Z,9.05
2022-09-13T06:41:04.555Z,8.82
2022-09-13T06:43:32.772Z,7.88
2022-09-13T06:46:02.260Z,11.10
2022-09-13T06:48:32.683Z,10.88
2022-09-13T06:51:01.831Z,8.82
2022-09-13T06:53:31.318Z,10.40
2022-09-13T06:56:03.434Z,8.57
2022-09-13T06:58:32.559Z,9.65
2022-09-13T07:01:10.790Z,6.72
2022-09-13T07:03:39.254Z,7.13
2022-09-13T07:06:12.121Z,10.38
2022-09-13T07:08:42.160Z,8.35
2022-09-13T07:11:10.579Z,8.32
2022-09-13T07:13:38.645Z,8.70
2022-09-13T07:16:09.063Z,8.75
2022-09-13T07:18:37.787Z,7.10
2022-09-13T07:21:07.955Z,9.18
2022-09-13T07:23:38.504Z,11.05
2022-09-13T07:26:08.838Z,10.35
2022-09-13T07:28:38.132Z,10.30
2022-09-13T07:31:08.164Z,11.68
2022-09-13T07:33:36.601Z,12.75
2022-09-13T07:36:06.646Z,12.52
2022-09-13T07:38:42.054Z,12.23
2022-09-13T07:41:14.687Z,12.95
2022-09-13T07:43:42.621Z,10.75
2022-09-13T07:46:12.345Z,10.05
2022-09-13T07:48:42.163Z,10.00
2022-09-13T07:51:12.008Z,11.52
2022-09-13T07:53:41.658Z,11.80
2022-09-13T07:56:12.893Z,10.98
2022-09-13T07:58:43.759Z,17.20
2022-09-13T08:01:14.635Z,20.63
2022-09-13T08:03:42.766Z,11.68
2022-09-13T08:06:10.770Z,12.85
2022-09-13T08:08:40.408Z,13.98
2022-09-13T08:11:08.362Z,11.65
2022-09-13T08:13:37.599Z,13.15
2022-09-13T08:16:06.837Z,15.35
2022-09-13T08:18:34.973Z,16.20
2022-09-13T08:21:03.118Z,14.82
2022-09-13T08:23:31.238Z,15.90
2022-09-13T08:26:02.644Z,11.68
2022-09-13T08:28:31.589Z,14.02
2022-09-13T08:31:06.472Z,16.15
2022-09-13T08:33:34.682Z,17.45
2022-09-13T08:36:03.286Z,14.05
2022-09-13T08:38:32.210Z,13.00
2022-09-13T08:41:03.347Z,17.23
2022-09-13T08:43:43.751Z,15.52
2022-09-13T08:46:24.897Z,11.15
2022-09-13T08:48:56.962Z,13.20
2022-09-13T08:51:38.725Z,16.35
2022-09-13T08:54:07.496Z,13.93
2022-09-13T08:56:42.779Z,15.45
2022-09-13T08:59:34.362Z,9.88
2022-09-13T09:02:21.764Z,19.48
2022-09-13T09:04:57.757Z,16.20
2022-09-13T09:07:29.188Z,16.70
2022-09-13T09:10:00.870Z,15.70
2022-09-13T09:12:35.400Z,11.43
2022-09-13T09:15:09.754Z,14.48
2022-09-13T09:17:47.651Z,12.57
2022-09-13T09:20:25.576Z,16.15
2022-09-13T09:22:55.150Z,9.75
2022-09-13T09:25:25.153Z,11.75
2022-09-13T09:27:53.668Z,9.88
2022-09-13T09:30:22.351Z,17.35
2022-09-13T09:33:28.326Z,10.43
2022-09-13T09:36:05.655Z,12.02
2022-09-13T09:38:37.727Z,11.80
2022-09-13T09:41:09.235Z,13.30
2022-09-13T09:43:47.656Z,18.92
2022-09-13T09:46:22.040Z,17.60
2022-09-13T09:48:56.655Z,13.63
2022-09-13T09:51:29.125Z,16.75
2022-09-13T09:54:05.179Z,19.02
2022-09-13T09:56:35.722Z,16.10
2022-09-13T09:59:03.554Z,12.82
2022-09-13T10:01:33.342Z,13.15
2022-09-13T10:04:09.672Z,12.55
2022-09-13T10:06:39.786Z,14.18
2022-09-13T10:09:16.087Z,10.90
2022-09-13T10:11:46.895Z,12.35
2022-09-13T10:14:42.750Z,11.40
2022-09-13T10:17:18.368Z,14.63
2022-09-13T10:19:56.340Z,10.90
2022-09-13T10:22:24.312Z,10.75
2022-09-13T10:24:52.050Z,11.80
2022-09-13T10:27:23.905Z,10.85
2022-09-13T10:29:55.342Z,11.55
2022-09-13T10:32:23.729Z,10.35
2022-09-13T10:34:52.505Z,8.95
2022-09-13T10:37:24.043Z,12.43
2022-09-13T10:39:58.229Z,13.52
2022-09-13T10:42:28.802Z,11.65
2022-09-13T10:44:59.210Z,15.38
2022-09-13T10:47:31.224Z,12.93
2022-09-13T10:50:00.377Z,13.57
2022-09-13T10:52:32.826Z,19.23
2022-09-13T10:55:33.819Z,12.23
2022-09-13T10:58:22.732Z,15.13
2022-09-13T11:01:22.148Z,16.77
2022-09-13T11:04:17.039Z,14.48
2022-09-13T11:06:58.481Z,14.65
2022-09-13T11:09:36.998Z,15.02
2022-09-13T11:12:14.352Z,16.27
2022-09-13T11:14:57.638Z,17.67
2022-09-13T11:17:51.739Z,15.38
2022-09-13T11:20:32.446Z,17.02
2022-09-13T11:23:23.070Z,17.38
2022-09-13T11:26:04.475Z,16.63
2022-09-13T11:28:41.930Z,16.90
2022-09-13T11:31:30.607Z,17.65
2022-09-13T11:34:14.287Z,12.88
2022-09-13T11:36:54.282Z,13.80
2022-09-13T11:39:32.200Z,12.60
2022-09-13T11:42:12.080Z,16.65
2022-09-13T11:44:57.165Z,12.65
2022-09-13T11:47:34.665Z,20.63
2022-09-13T11:50:19.347Z,14.57
2022-09-13T11:52:58.935Z,14.88
2022-09-13T11:55:30.937Z,13.98
2022-09-13T11:58:04.921Z,13.57
2022-09-13T12:00:41.393Z,10.60
2022-09-13T12:03:16.673Z,13.95
2022-09-13T12:05:50.052Z,11.98
2022-09-13T12:08:21.661Z,12.90
2022-09-13T12:10:53.954Z,12.60
2022-09-13T12:13:26.440Z,11.65
2022-09-13T12:15:58.604Z,11.38
2022-09-13T12:18:30.835Z,12.60
2022-09-13T12:21:07.327Z,13.88
2022-09-13T12:23:39.950Z,14.38
2022-09-13T12:26:12.792Z,16.27
2022-09-13T12:28:46.114Z,14.50
2022-09-13T12:31:19.656Z,16.92
2022-09-13T12:33:49.094Z,14.90
2022-09-13T12:36:38.881Z,13.52
2022-09-13T12:39:32.263Z,12.40
2022-09-13T12:42:23.540Z,9.52
2022-09-13T12:45:08.444Z,11.13
2022-09-13T12:47:54.432Z,11.88
2022-09-13T12:50:44.211Z,8.75
2022-09-13T12:53:30.362Z,7.53
2022-09-13T12:56:31.939Z,10.45
2022-09-13T12:59:22.901Z,8.10
2022-09-13T13:01:52.916Z,9.82
2022-09-13T13:04:25.302Z,11.25
2022-09-13T13:06:56.885Z,11.40
2022-09-13T13:09:38.405Z,14.98
2022-09-13T13:12:06.597Z,12.88
2022-09-13T13:14:53.388Z,10.23
2022-09-13T13:17:45.727Z,11.73
2022-09-13T13:20:42.728Z,12.35
2022-09-13T13:23:23.514Z,13.77
2022-09-13T13:26:01.401Z,13.18
2022-09-13T13:29:06.033Z,13.75
2022-09-13T13:31:39.459Z,14.38
2022-09-13T13:34:32.463Z,11.18
2022-09-13T13:37:04.277Z,13.90
2022-09-13T13:39:43.321Z,17.85
2022-09-13T13:42:26.267Z,21.17
2022-09-13T13:45:26.171Z,11.82
2022-09-13T13:48:10.905Z,8.23
2022-09-13T13:51:10.936Z,11.25
2022-09-13T13:53:42.325Z,8.80
2022-09-13T13:56:20.946Z,7.75
2022-09-13T13:58:53.372Z,7.70
2022-09-13T14:01:25.877Z,10.13
2022-09-13T14:04:29.705Z,10.13
2022-09-13T14:07:18.947Z,9.65
2022-09-13T14:09:55.718Z,10.25
2022-09-13T14:12:36.157Z,9.23
2022-09-13T14:15:17.386Z,10.10
2022-09-13T14:18:03.469Z,14.65
2022-09-13T14:20:31.292Z,9.50
2022-09-13T14:23:18.494Z,9.73
2022-09-13T14:25:54.602Z,8.23
2022-09-13T14:28:24.105Z,8.98
2022-09-13T14:30:55.620Z,12.65
2022-09-13T14:33:30.894Z,12.07
2022-09-13T14:36:05.548Z,12.43
2022-09-13T14:38:35.678Z,13.52
2022-09-13T14:41:15.250Z,11.98
2022-09-13T14:43:43.820Z,9.85
2022-09-13T14:46:17.575Z,8.43
2022-09-13T14:48:51.737Z,9.63
2022-09-13T14:51:24.918Z,8.63
2022-09-13T14:53:55.589Z,18.38
2022-09-13T14:56:34.006Z,17.38
2022-09-13T14:59:06.784Z,15.63
2022-09-13T15:01:37.096Z,16.92
2022-09-13T15:04:07.549Z,42.85
2022-09-13T15:06:39.098Z,16.58
2022-09-13T15:09:27.080Z,16.17
2022-09-13T15:12:01.132Z,10.30
2022-09-13T15:14:32.198Z,11.30
2022-09-13T15:17:08.039Z,13.75
2022-09-13T15:19:41.798Z,10.95
2022-09-13T15:22:17.190Z,13.65
2022-09-13T15:24:48.641Z,12.30
2022-09-13T15:27:22.159Z,9.23
2022-09-13T15:29:51.771Z,12.88
2022-09-13T15:32:25.759Z,10.38
2022-09-13T15:34:53.636Z,11.80
2022-09-13T15:37:31.254Z,13.55
2022-09-13T15:40:21.146Z,11.02
2022-09-13T15:42:52.575Z,10.15
2022-09-13T15:45:22.568Z,9.70
2022-09-13T15:47:52.231Z,14.15
2022-09-13T15:50:23.053Z,10.02
2022-09-13T15:52:50.952Z,9.60
2022-09-13T15:55:18.815Z,8.98
2022-09-13T15:57:47.681Z,9.27
2022-09-13T16:00:20.343Z,7.68
2022-09-13T16:02:48.262Z,8.27
2022-09-13T16:05:16.429Z,8.93
2022-09-13T16:07:45.099Z,13.02
2022-09-13T16:10:15.521Z,12.07
2022-09-13T16:12:43.425Z,9.85
2022-09-13T16:15:12.750Z,10.15
2022-09-13T16:17:42.463Z,11.98
2022-09-13T16:20:13.991Z,13.65
2022-09-13T16:22:42.517Z,13.05
2022-09-13T16:25:13.192Z,11.75
2022-09-13T16:27:41.583Z,13.02
2022-09-13T16:30:12.617Z,11.32
2022-09-13T16:32:42.446Z,11.68
2022-09-13T16:35:11.433Z,11.43
2022-09-13T16:37:39.851Z,13.40
2022-09-13T16:40:09.433Z,17.85
2022-09-13T16:42:37.541Z,11.20
2022-09-13T16:45:06.180Z,12.20
2022-09-13T16:47:34.068Z,8.98
2022-09-13T16:50:03.684Z,7.90
2022-09-13T16:52:31.559Z,9.38
2022-09-13T16:54:59.528Z,9.98
2022-09-13T16:57:27.708Z,14.45
2022-09-13T16:59:58.434Z,10.85
2022-09-13T17:02:27.185Z,10.60
2022-09-13T17:04:55.704Z,9.15
2022-09-13T17:07:24.925Z,10.85
2022-09-13T17:09:52.787Z,8.38
2022-09-13T17:12:20.861Z,8.20
2022-09-13T17:14:50.622Z,7.30
2022-09-13T17:17:19.270Z,11.10
2022-09-13T17:19:47.630Z,7.97
2022-09-13T17:22:16.502Z,8.32
2022-09-13T17:24:46.176Z,6.60
2022-09-13T17:27:13.969Z,7.55
2022-09-13T17:29:42.032Z,9.57
2022-09-13T17:32:10.112Z,8.43
2022-09-13T17:34:38.351Z,9.32
2022-09-13T17:37:07.283Z,9.45
2022-09-13T17:39:35.323Z,8.18
2022-09-13T17:42:05.154Z,5.90
2022-09-13T17:44:32.869Z,6.00
2022-09-13T17:47:02.362Z,7.95
2022-09-13T17:49:30.280Z,7.53
2022-09-13T17:51:58.213Z,6.45
2022-09-13T17:54:26.632Z,8.98
2022-09-13T17:56:54.449Z,5.43
2022-09-13T17:59:23.973Z,7.20
2022-09-13T18:01:54.170Z,7.07
2022-09-13T18:04:24.160Z,9.40
2022-09-13T18:06:52.477Z,6.18
2022-09-13T18:09:21.191Z,9.80
2022-09-13T18:11:49.054Z,5.57
2022-09-13T18:14:18.984Z,9.55
2022-09-13T18:16:55.406Z,8.82
2022-09-13T18:19:44.277Z,9.07
2022-09-13T18:22:11.774Z,5.25
2022-09-13T18:24:39.981Z,6.80
2022-09-13T18:27:07.848Z,5.10
2022-09-13T18:29:35.686Z,7.97
2022-09-13T18:32:05.223Z,4.78
2022-09-13T18:34:33.442Z,6.88
2022-09-13T18:37:01.248Z,7.20
2022-09-13T18:39:29.008Z,7.30
2022-09-13T18:41:56.806Z,7.75
2022-09-13T18:44:24.659Z,4.70
2022-09-13T18:46:54.158Z,7.65
2022-09-13T18:49:23.622Z,4.47
2022-09-13T18:51:51.587Z,4.00
2022-09-13T18:54:20.096Z,5.28
2022-09-13T18:56:48.760Z,7.90
2022-09-13T18:59:16.695Z,4.03
2022-09-13T19:01:45.973Z,3.97
2022-09-13T19:04:15.631Z,3.90
2022-09-13T19:06:46.514Z,4.38
2022-09-13T19:09:16.899Z,3.25
2022-09-13T19:11:48.510Z,3.15
2022-09-13T19:14:19.010Z,4.47
2022-09-13T19:16:47.321Z,4.82
2022-09-13T19:19:15.800Z,4.78
2022-09-13T19:21:45.399Z,4.03
2022-09-13T19:24:18.136Z,4.32
2022-09-13T19:26:48.643Z,8.45
2022-09-13T19:29:19.709Z,2.70
2022-09-13T19:31:49.824Z,3.60
2022-09-13T19:34:19.286Z,2.83
2022-09-13T19:36:50.493Z,4.53
2022-09-13T19:39:19.549Z,3.35
2022-09-13T19:41:47.417Z,2.42
2022-09-13T19:44:15.925Z,4.63
2022-09-13T19:46:44.334Z,3.95
2022-09-13T19:49:14.795Z,3.13
2022-09-13T19:51:48.792Z,2.65
2022-09-13T19:54:20.682Z,2.10
2022-09-13T19:56:50.137Z,3.85
2022-09-13T19:59:20.914Z,3.33
2022-09-13T20:01:49.346Z,3.15
2022-09-13T20:04:18.876Z,1.55
2022-09-13T20:06:48.848Z,2.13
2022-09-13T20:09:18.486Z,4.70
2022-09-13T20:11:48.796Z,3.72
2022-09-13T20:14:18.385Z,3.17
2022-09-13T20:16:46.657Z,4.32
2022-09-13T20:19:39.417Z,2.78
2022-09-13T20:22:06.874Z,6.05
2022-09-13T20:24:35.066Z,3.97
2022-09-13T20:27:04.601Z,2.67
2022-09-13T20:29:32.868Z,5.00
2022-09-13T20:32:02.216Z,2.17
2022-09-13T20:34:30.144Z,2.33
2022-09-13T20:36:57.982Z,5.28
2022-09-13T20:39:25.717Z,1.95
2022-09-13T20:41:54.675Z,3.58
2022-09-13T20:44:23.947Z,3.58
2022-09-13T20:46:52.036Z,4.18
2022-09-13T20:49:19.803Z,4.40
2022-09-13T20:51:49.316Z,4.57
2022-09-13T20:54:17.354Z,4.43
2022-09-13T20:56:46.317Z,3.08
2022-09-13T20:59:14.891Z,3.38
2022-09-13T21:01:44.455Z,3.75
2022-09-13T21:04:12.426Z,3.28
2022-09-13T21:07:01.581Z,6.70
2022-09-13T21:09:29.064Z,5.05
2022-09-13T21:11:56.928Z,2.65
2022-09-13T21:14:24.798Z,3.38
2022-09-13T21:16:54.361Z,1.75
2022-09-13T21:19:22.370Z,2.00
2022-09-13T21:21:50.191Z,3.58
2022-09-13T21:24:18.298Z,6.07
2022-09-13T21:26:46.025Z,1.98
2022-09-13T21:29:13.964Z,3.55
2022-09-13T21:31:42.099Z,4.53
2022-09-13T21:34:16.636Z,2.88
2022-09-13T21:36:45.168Z,6.68
2022-09-13T21:39:13.658Z,5.50
2022-09-13T21:41:42.358Z,5.43
2022-09-13T21:44:10.670Z,2.17
2022-09-13T21:46:40.293Z,3.72
2022-09-13T21:49:10.186Z,8.75
2022-09-13T21:51:41.482Z,7.50
2022-09-13T21:54:11.836Z,5.20
2022-09-13T21:56:41.242Z,4.00
2022-09-13T21:59:14.427Z,4.70
2022-09-13T22:01:43.871Z,3.70
2022-09-13T22:04:17.594Z,2.63
2022-09-13T22:06:48.109Z,5.57
2022-09-13T22:09:16.540Z,2.30
2022-09-13T22:11:47.312Z,3.25
2022-09-13T22:14:17.520Z,4.45
2022-09-13T22:16:49.913Z,2.17
2022-09-13T22:19:19.587Z,4.50
2022-09-13T22:21:50.349Z,2.65
2022-09-13T22:24:20.778Z,3.67
2022-09-13T22:26:50.228Z,2.30
2022-09-13T22:29:18.354Z,7.57
2022-09-13T22:31:48.183Z,4.53
2022-09-13T22:34:17.726Z,7.25
2022-09-13T22:36:46.049Z,4.20
2022-09-13T22:39:17.034Z,3.03
2022-09-13T22:41:45.787Z,4.95
2022-09-13T22:44:13.826Z,3.33
2022-09-13T22:46:43.406Z,4.72
2022-09-13T22:49:13.405Z,5.88
2022-09-13T22:51:41.404Z,6.57
2022-09-13T22:54:09.554Z,1.75
2022-09-13T22:56:38.894Z,2.30
2022-09-13T22:59:09.469Z,3.42
2022-09-13T23:01:38.348Z,3.53
2022-09-13T23:04:06.823Z,4.60
2022-09-13T23:06:35.705Z,5.78
2022-09-13T23:09:06.029Z,1.83
2022-09-13T23:11:35.906Z,6.53
2022-09-13T23:14:07.521Z,2.33
2022-09-13T23:16:36.923Z,3.47
2022-09-13T23:19:05.208Z,7.55
2022-09-13T23:21:35.407Z,2.47
2022-09-13T23:24:05.478Z,2.92
2022-09-13T23:26:34.071Z,3.40
2022-09-13T23:29:03.508Z,3.88
2022-09-13T23:31:35.051Z,4.80
2022-09-13T23:34:05.655Z,5.05
2022-09-13T23:36:38.218Z,3.53
2022-09-13T23:39:08.082Z,3.95
2022-09-13T23:41:36.291Z,3.33
2022-09-13T23:44:04.866Z,4.72
2022-09-13T23:46:34.259Z,2.85
2022-09-13T23:49:02.029Z,4.47
2022-09-13T23:51:29.917Z,8.05
2022-09-13T23:54:00.557Z,5.32
2022-09-13T23:56:30.572Z,3.00
2022-09-13T23:59:00.367Z,7.57
